sensor_id;sensor_type;location;lat;lon;timestamp;P1;durP1;ratioP1;P2;durP2;ratioP2
27161;SDS011;54464;50.558;9.704;2023-09-12T00:00:45;16.17;;;9.40;;
27161;SDS011;54464;50.558;9.704;2023-09-12T00:03:10;12.20;;;8.90;;
27161;SDS011;54464;50.558;9.704;2023-09-12T00:05:36;11.60;;;8.40;;
27161;SDS011;54464;50.558;9.704;2023-09-12T00:08:02;16.03;;;9.20;;
27161;SDS011;54464;50.558;9.704;2023-09-12T00:10:28;15.03;;;9.07;;
27161;SDS011;54464;50.558;9.704;2023-09-12T00:12:54;15.57;;;9.23;;
27161;SDS011;54464;50.558;9.704;2023-09-12T00:15:20;15.27;;;9.13;;
27161;SDS011;54464;50.558;9.704;2023-09-12T00:17:46;12.50;;;9.10;;
27161;SDS011;54464;50.558;9.704;2023-09-12T00:20:13;11.60;;;9.00;;
27161;SDS011;54464;50.558;9.704;2023-09-12T00:22:39;13.30;;;8.83;;
27161;SDS011;54464;50.558;9.704;2023-09-12T00:25:05;14.83;;;9.17;;
27161;SDS011;54464;50.558;9.704;2023-09-12T00:27:31;14.73;;;9.13;;
27161;SDS011;54464;50.558;9.704;2023-09-12T00:29:57;14.63;;;8.87;;
27161;SDS011;54464;50.558;9.704;2023-09-12T00:32:22;12.47;;;9.57;;
27161;SDS011;54464;50.558;9.704;2023-09-12T00:34:48;12.10;;;8.80;;
27161;SDS011;54464;50.558;9.704;2023-09-12T00:37:13;15.07;;;9.20;;
27161;SDS011;54464;50.558;9.704;2023-09-12T00:39:39;13.60;;;8.97;;
27161;SDS011;54464;50.558;9.704;2023-09-12T00:42:04;11.37;;;9.17;;
27161;SDS011;54464;50.558;9.704;2023-09-12T00:44:32;11.20;;;8.07;;
27161;SDS011;54464;50.558;9.704;2023-09-12T00:46:58;12.67;;;8.97;;
27161;SDS011;54464;50.558;9.704;2023-09-12T00:49:26;12.37;;;8.93;;
27161;SDS011;54464;50.558;9.704;2023-09-12T00:51:52;14.23;;;9.03;;
27161;SDS011;54464;50.558;9.704;2023-09-12T00:54:20;13.03;;;9.03;;
27161;SDS011;54464;50.558;9.704;2023-09-12T00:56:45;10.73;;;8.60;;
27161;SDS011;54464;50.558;9.704;2023-09-12T00:59:11;12.00;;;8.30;;
27161;SDS011;54464;50.558;9.704;2023-09-12T01:01:38;11.20;;;7.93;;
27161;SDS011;54464;50.558;9.704;2023-09-12T01:04:04;14.07;;;8.50;;
27161;SDS011;54464;50.558;9.704;2023-09-12T01:06:30;12.07;;;8.37;;
27161;SDS011;54464;50.558;9.704;2023-09-12T01:08:58;14.13;;;8.37;;
27161;SDS011;54464;50.558;9.704;2023-09-12T01:11:25;13.53;;;8.63;;
27161;SDS011;54464;50.558;9.704;2023-09-12T01:13:52;11.00;;;8.43;;
27161;SDS011;54464;50.558;9.704;2023-09-12T01:16:17;15.63;;;8.13;;
27161;SDS011;54464;50.558;9.704;2023-09-12T01:18:43;16.57;;;8.70;;
27161;SDS011;54464;50.558;9.704;2023-09-12T01:29:16;11.40;;;8.80;;
27161;SDS011;54464;50.558;9.704;2023-09-12T01:31:45;12.13;;;8.73;;
27161;SDS011;54464;50.558;9.704;2023-09-12T01:34:12;10.30;;;8.27;;
27161;SDS011;54464;50.558;9.704;2023-09-12T01:36:39;12.67;;;8.67;;
27161;SDS011;54464;50.558;9.704;2023-09-12T01:39:04;10.23;;;9.13;;
27161;SDS011;54464;50.558;9.704;2023-09-12T01:41:31;14.20;;;9.23;;
27161;SDS011;54464;50.558;9.704;2023-09-12T01:43:59;10.90;;;9.47;;
27161;SDS011;54464;50.558;9.704;2023-09-12T01:46:27;10.57;;;9.17;;
27161;SDS011;54464;50.558;9.704;2023-09-12T01:48:53;11.23;;;8.53;;
27161;SDS011;54464;50.558;9.704;2023-09-12T01:51:21;11.47;;;8.63;;
27161;SDS011;54464;50.558;9.704;2023-09-12T01:53:49;15.87;;;9.97;;
27161;SDS011;54464;50.558;9.704;2023-09-12T01:56:15;13.17;;;9.60;;
27161;SDS011;54464;50.558;9.704;2023-09-12T01:58:42;16.87;;;9.73;;
27161;SDS011;54464;50.558;9.704;2023-09-12T02:01:08;11.77;;;9.43;;
27161;SDS011;54464;50.558;9.704;2023-09-12T02:03:34;11.97;;;9.43;;
27161;SDS011;54464;50.558;9.704;2023-09-12T02:06:00;12.67;;;9.37;;
27161;SDS011;54464;50.558;9.704;2023-09-12T02:08:25;12.57;;;9.47;;
27161;SDS011;54464;50.558;9.704;2023-09-12T02:10:51;12.37;;;9.53;;
27161;SDS011;54464;50.558;9.704;2023-09-12T02:13:16;13.90;;;10.27;;
27161;SDS011;54464;50.558;9.704;2023-09-12T02:15:42;13.93;;;10.60;;
27161;SDS011;54464;50.558;9.704;2023-09-12T02:18:07;15.60;;;11.20;;
27161;SDS011;54464;50.558;9.704;2023-09-12T02:20:37;16.03;;;11.97;;
27161;SDS011;54464;50.558;9.704;2023-09-12T02:23:03;14.00;;;11.17;;
27161;SDS011;54464;50.558;9.704;2023-09-12T02:25:29;17.33;;;10.57;;
27161;SDS011;54464;50.558;9.704;2023-09-12T02:27:54;17.97;;;10.57;;
27161;SDS011;54464;50.558;9.704;2023-09-12T02:30:20;15.83;;;11.23;;
27161;SDS011;54464;50.558;9.704;2023-09-12T02:32:45;14.00;;;10.27;;
27161;SDS011;54464;50.558;9.704;2023-09-12T02:35:11;17.10;;;11.10;;
27161;SDS011;54464;50.558;9.704;2023-09-12T02:37:36;16.53;;;10.67;;
27161;SDS011;54464;50.558;9.704;2023-09-12T02:40:02;20.90;;;10.63;;
27161;SDS011;54464;50.558;9.704;2023-09-12T02:42:30;12.50;;;10.20;;
27161;SDS011;54464;50.558;9.704;2023-09-12T02:44:56;12.43;;;10.03;;
27161;SDS011;54464;50.558;9.704;2023-09-12T02:47:21;12.13;;;9.87;;
27161;SDS011;54464;50.558;9.704;2023-09-12T02:49:47;14.83;;;9.83;;
27161;SDS011;54464;50.558;9.704;2023-09-12T02:52:12;13.33;;;10.17;;
27161;SDS011;54464;50.558;9.704;2023-09-12T02:54:38;15.03;;;9.50;;
27161;SDS011;54464;50.558;9.704;2023-09-12T02:57:03;13.93;;;9.77;;
27161;SDS011;54464;50.558;9.704;2023-09-12T02:59:29;14.20;;;10.30;;
27161;SDS011;54464;50.558;9.704;2023-09-12T03:01:55;14.87;;;8.63;;
27161;SDS011;54464;50.558;9.704;2023-09-12T03:04:21;12.90;;;9.87;;
27161;SDS011;54464;50.558;9.704;2023-09-12T03:06:46;15.47;;;9.50;;
27161;SDS011;54464;50.558;9.704;2023-09-12T03:09:13;13.57;;;9.57;;
27161;SDS011;54464;50.558;9.704;2023-09-12T03:11:39;12.83;;;8.97;;
27161;SDS011;54464;50.558;9.704;2023-09-12T03:14:04;17.10;;;9.60;;
27161;SDS011;54464;50.558;9.704;2023-09-12T03:16:30;13.17;;;9.60;;
27161;SDS011;54464;50.558;9.704;2023-09-12T03:18:55;13.33;;;9.60;;
27161;SDS011;54464;50.558;9.704;2023-09-12T03:21:21;13.97;;;9.50;;
27161;SDS011;54464;50.558;9.704;2023-09-12T03:23:46;16.07;;;9.43;;
27161;SDS011;54464;50.558;9.704;2023-09-12T03:26:12;12.10;;;9.13;;
27161;SDS011;54464;50.558;9.704;2023-09-12T03:28:37;10.43;;;9.27;;
27161;SDS011;54464;50.558;9.704;2023-09-12T03:31:05;13.60;;;9.80;;
27161;SDS011;54464;50.558;9.704;2023-09-12T03:33:32;12.67;;;9.77;;
27161;SDS011;54464;50.558;9.704;2023-09-12T03:35:58;16.00;;;10.13;;
27161;SDS011;54464;50.558;9.704;2023-09-12T03:38:23;15.37;;;10.33;;
27161;SDS011;54464;50.558;9.704;2023-09-12T03:40:49;17.40;;;10.30;;
27161;SDS011;54464;50.558;9.704;2023-09-12T03:43:15;13.60;;;9.93;;
27161;SDS011;54464;50.558;9.704;2023-09-12T03:45:40;15.27;;;10.43;;
27161;SDS011;54464;50.558;9.704;2023-09-12T03:48:06;13.77;;;9.90;;
27161;SDS011;54464;50.558;9.704;2023-09-12T03:50:31;13.23;;;11.20;;
27161;SDS011;54464;50.558;9.704;2023-09-12T03:52:57;13.03;;;9.87;;
27161;SDS011;54464;50.558;9.704;2023-09-12T03:55:22;13.63;;;9.87;;
27161;SDS011;54464;50.558;9.704;2023-09-12T03:57:48;13.83;;;10.77;;
27161;SDS011;54464;50.558;9.704;2023-09-12T04:00:13;11.70;;;10.07;;
27161;SDS011;54464;50.558;9.704;2023-09-12T04:02:39;13.83;;;10.43;;
27161;SDS011;54464;50.558;9.704;2023-09-12T04:05:05;13.53;;;10.47;;
27161;SDS011;54464;50.558;9.704;2023-09-12T04:07:31;17.63;;;10.27;;
27161;SDS011;54464;50.558;9.704;2023-09-12T04:09:56;14.30;;;9.57;;
27161;SDS011;54464;50.558;9.704;2023-09-12T04:12:22;14.53;;;9.50;;
27161;SDS011;54464;50.558;9.704;2023-09-12T04:14:49;16.67;;;10.20;;
27161;SDS011;54464;50.558;9.704;2023-09-12T04:17:16;15.57;;;10.40;;
27161;SDS011;54464;50.558;9.704;2023-09-12T04:19:41;11.57;;;10.13;;
27161;SDS011;54464;50.558;9.704;2023-09-12T04:22:07;14.33;;;10.73;;
27161;SDS011;54464;50.558;9.704;2023-09-12T04:24:32;13.80;;;10.10;;
27161;SDS011;54464;50.558;9.704;2023-09-12T04:26:58;16.30;;;10.37;;
27161;SDS011;54464;50.558;9.704;2023-09-12T04:29:23;11.80;;;9.90;;
27161;SDS011;54464;50.558;9.704;2023-09-12T04:31:49;12.83;;;9.73;;
27161;SDS011;54464;50.558;9.704;2023-09-12T04:34:15;14.83;;;10.03;;
27161;SDS011;54464;50.558;9.704;2023-09-12T04:36:41;14.97;;;9.53;;
27161;SDS011;54464;50.558;9.704;2023-09-12T04:39:07;15.73;;;9.63;;
27161;SDS011;54464;50.558;9.704;2023-09-12T04:41:33;13.60;;;9.83;;
27161;SDS011;54464;50.558;9.704;2023-09-12T04:43:58;13.33;;;10.50;;
27161;SDS011;54464;50.558;9.704;2023-09-12T04:46:25;12.87;;;9.57;;
27161;SDS011;54464;50.558;9.704;2023-09-12T04:48:51;11.87;;;9.20;;
27161;SDS011;54464;50.558;9.704;2023-09-12T04:51:16;13.97;;;10.63;;
27161;SDS011;54464;50.558;9.704;2023-09-12T04:53:42;11.33;;;9.20;;
27161;SDS011;54464;50.558;9.704;2023-09-12T04:56:07;12.40;;;9.43;;
27161;SDS011;54464;50.558;9.704;2023-09-12T04:58:35;13.17;;;9.47;;
27161;SDS011;54464;50.558;9.704;2023-09-12T05:01:00;12.37;;;10.10;;
27161;SDS011;54464;50.558;9.704;2023-09-12T05:03:27;13.20;;;9.70;;
27161;SDS011;54464;50.558;9.704;2023-09-12T05:05:52;14.97;;;11.07;;
27161;SDS011;54464;50.558;9.704;2023-09-12T05:08:18;14.37;;;10.13;;
27161;SDS011;54464;50.558;9.704;2023-09-12T05:10:44;14.93;;;9.77;;
27161;SDS011;54464;50.558;9.704;2023-09-12T05:13:10;11.43;;;9.63;;
27161;SDS011;54464;50.558;9.704;2023-09-12T05:15:36;11.53;;;9.40;;
27161;SDS011;54464;50.558;9.704;2023-09-12T05:18:04;13.63;;;9.43;;
27161;SDS011;54464;50.558;9.704;2023-09-12T05:20:30;13.03;;;9.47;;
27161;SDS011;54464;50.558;9.704;2023-09-12T05:22:56;14.33;;;10.47;;
27161;SDS011;54464;50.558;9.704;2023-09-12T05:25:22;16.23;;;9.57;;
27161;SDS011;54464;50.558;9.704;2023-09-12T05:27:47;15.67;;;10.20;;
27161;SDS011;54464;50.558;9.704;2023-09-12T05:30:13;20.57;;;12.33;;
27161;SDS011;54464;50.558;9.704;2023-09-12T05:32:38;17.03;;;12.07;;
27161;SDS011;54464;50.558;9.704;2023-09-12T05:35:05;16.10;;;12.10;;
27161;SDS011;54464;50.558;9.704;2023-09-12T05:37:31;16.13;;;11.27;;
27161;SDS011;54464;50.558;9.704;2023-09-12T05:39:56;15.20;;;11.20;;
27161;SDS011;54464;50.558;9.704;2023-09-12T05:42:22;14.00;;;11.40;;
27161;SDS011;54464;50.558;9.704;2023-09-12T05:44:48;12.00;;;10.60;;
27161;SDS011;54464;50.558;9.704;2023-09-12T05:47:14;15.63;;;11.63;;
27161;SDS011;54464;50.558;9.704;2023-09-12T05:49:40;20.17;;;11.47;;
27161;SDS011;54464;50.558;9.704;2023-09-12T05:52:06;16.37;;;11.40;;
27161;SDS011;54464;50.558;9.704;2023-09-12T05:54:31;13.63;;;10.77;;
27161;SDS011;54464;50.558;9.704;2023-09-12T05:56:57;15.67;;;11.57;;
27161;SDS011;54464;50.558;9.704;2023-09-12T05:59:23;15.90;;;11.87;;
27161;SDS011;54464;50.558;9.704;2023-09-12T06:01:48;13.27;;;11.63;;
27161;SDS011;54464;50.558;9.704;2023-09-12T06:04:14;18.30;;;12.20;;
27161;SDS011;54464;50.558;9.704;2023-09-12T06:06:40;17.80;;;12.87;;
27161;SDS011;54464;50.558;9.704;2023-09-12T06:09:05;16.93;;;13.90;;
27161;SDS011;54464;50.558;9.704;2023-09-12T06:11:31;16.63;;;13.20;;
27161;SDS011;54464;50.558;9.704;2023-09-12T06:13:56;18.27;;;13.67;;
27161;SDS011;54464;50.558;9.704;2023-09-12T06:16:22;19.93;;;14.17;;
27161;SDS011;54464;50.558;9.704;2023-09-12T06:18:48;15.83;;;13.33;;
27161;SDS011;54464;50.558;9.704;2023-09-12T06:21:13;15.47;;;13.13;;
27161;SDS011;54464;50.558;9.704;2023-09-12T06:23:39;18.60;;;12.27;;
27161;SDS011;54464;50.558;9.704;2023-09-12T06:26:05;16.07;;;11.13;;
27161;SDS011;54464;50.558;9.704;2023-09-12T06:28:31;14.83;;;11.37;;
27161;SDS011;54464;50.558;9.704;2023-09-12T06:30:57;16.63;;;11.60;;
27161;SDS011;54464;50.558;9.704;2023-09-12T06:33:24;17.43;;;11.43;;
27161;SDS011;54464;50.558;9.704;2023-09-12T06:35:50;14.77;;;11.40;;
27161;SDS011;54464;50.558;9.704;2023-09-12T06:38:17;13.57;;;11.47;;
27161;SDS011;54464;50.558;9.704;2023-09-12T06:40:43;14.53;;;10.50;;
27161;SDS011;54464;50.558;9.704;2023-09-12T06:43:09;12.27;;;10.83;;
27161;SDS011;54464;50.558;9.704;2023-09-12T06:45:34;16.47;;;11.00;;
27161;SDS011;54464;50.558;9.704;2023-09-12T06:48:02;12.93;;;10.17;;
27161;SDS011;54464;50.558;9.704;2023-09-12T06:50:28;15.20;;;10.13;;
27161;SDS011;54464;50.558;9.704;2023-09-12T06:52:54;17.40;;;10.70;;
27161;SDS011;54464;50.558;9.704;2023-09-12T06:55:20;13.60;;;9.70;;
27161;SDS011;54464;50.558;9.704;2023-09-12T06:57:46;11.50;;;9.23;;
27161;SDS011;54464;50.558;9.704;2023-09-12T07:00:12;13.40;;;9.70;;
27161;SDS011;54464;50.558;9.704;2023-09-12T07:02:38;12.77;;;9.13;;
27161;SDS011;54464;50.558;9.704;2023-09-12T07:05:04;11.23;;;9.53;;
27161;SDS011;54464;50.558;9.704;2023-09-12T07:07:30;15.50;;;9.67;;
27161;SDS011;54464;50.558;9.704;2023-09-12T07:09:55;17.10;;;9.33;;
27161;SDS011;54464;50.558;9.704;2023-09-12T07:12:21;13.23;;;9.27;;
27161;SDS011;54464;50.558;9.704;2023-09-12T07:14:47;12.33;;;8.90;;
27161;SDS011;54464;50.558;9.704;2023-09-12T07:17:13;10.37;;;7.70;;
27161;SDS011;54464;50.558;9.704;2023-09-12T07:19:38;12.30;;;8.80;;
27161;SDS011;54464;50.558;9.704;2023-09-12T07:22:04;16.55;;;8.40;;
27161;SDS011;54464;50.558;9.704;2023-09-12T07:24:30;11.43;;;7.97;;
27161;SDS011;54464;50.558;9.704;2023-09-12T07:26:55;13.43;;;7.57;;
27161;SDS011;54464;50.558;9.704;2023-09-12T07:29:22;10.20;;;8.13;;
27161;SDS011;54464;50.558;9.704;2023-09-12T07:31:51;11.80;;;8.07;;
27161;SDS011;54464;50.558;9.704;2023-09-12T07:34:18;10.27;;;8.30;;
27161;SDS011;54464;50.558;9.704;2023-09-12T07:36:44;12.10;;;7.87;;
27161;SDS011;54464;50.558;9.704;2023-09-12T07:39:09;12.27;;;8.77;;
27161;SDS011;54464;50.558;9.704;2023-09-12T07:41:36;14.10;;;8.00;;
27161;SDS011;54464;50.558;9.704;2023-09-12T07:44:01;14.50;;;8.20;;
27161;SDS011;54464;50.558;9.704;2023-09-12T07:46:29;14.03;;;9.17;;
27161;SDS011;54464;50.558;9.704;2023-09-12T07:48:55;14.43;;;10.53;;
27161;SDS011;54464;50.558;9.704;2023-09-12T07:51:21;18.23;;;11.70;;
27161;SDS011;54464;50.558;9.704;2023-09-12T07:53:48;17.73;;;12.63;;
27161;SDS011;54464;50.558;9.704;2023-09-12T07:56:13;18.90;;;13.03;;
27161;SDS011;54464;50.558;9.704;2023-09-12T07:58:39;15.70;;;13.70;;
27161;SDS011;54464;50.558;9.704;2023-09-12T08:01:05;18.50;;;12.97;;
27161;SDS011;54464;50.558;9.704;2023-09-12T08:03:32;18.53;;;13.13;;
27161;SDS011;54464;50.558;9.704;2023-09-12T08:05:58;17.93;;;11.93;;
27161;SDS011;54464;50.558;9.704;2023-09-12T08:08:24;16.57;;;12.07;;
27161;SDS011;54464;50.558;9.704;2023-09-12T08:10:50;16.20;;;11.50;;
27161;SDS011;54464;50.558;9.704;2023-09-12T08:13:15;17.10;;;11.00;;
27161;SDS011;54464;50.558;9.704;2023-09-12T08:15:41;16.50;;;11.83;;
27161;SDS011;54464;50.558;9.704;2023-09-12T08:18:06;18.40;;;11.30;;
27161;SDS011;54464;50.558;9.704;2023-09-12T08:20:32;17.20;;;11.03;;
27161;SDS011;54464;50.558;9.704;2023-09-12T08:22:57;16.73;;;10.87;;
27161;SDS011;54464;50.558;9.704;2023-09-12T08:25:23;16.73;;;10.63;;
27161;SDS011;54464;50.558;9.704;2023-09-12T08:27:49;14.47;;;10.10;;
27161;SDS011;54464;50.558;9.704;2023-09-12T08:30:15;17.23;;;10.23;;
27161;SDS011;54464;50.558;9.704;2023-09-12T08:32:41;16.63;;;9.43;;
27161;SDS011;54464;50.558;9.704;2023-09-12T08:35:09;14.52;;;8.73;;
27161;SDS011;54464;50.558;9.704;2023-09-12T08:37:36;12.75;;;8.80;;
27161;SDS011;54464;50.558;9.704;2023-09-12T08:40:02;14.32;;;8.02;;
27161;SDS011;54464;50.558;9.704;2023-09-12T08:42:32;14.50;;;8.85;;
27161;SDS011;54464;50.558;9.704;2023-09-12T08:45:01;12.32;;;8.60;;
27161;SDS011;54464;50.558;9.704;2023-09-12T08:47:28;13.48;;;8.35;;
27161;SDS011;54464;50.558;9.704;2023-09-12T08:49:56;12.77;;;7.50;;
27161;SDS011;54464;50.558;9.704;2023-09-12T08:52:22;13.90;;;9.15;;
27161;SDS011;54464;50.558;9.704;2023-09-12T08:54:48;11.60;;;8.60;;
27161;SDS011;54464;50.558;9.704;2023-09-12T08:57:13;13.52;;;8.73;;
27161;SDS011;54464;50.558;9.704;2023-09-12T08:59:39;13.35;;;8.15;;
27161;SDS011;54464;50.558;9.704;2023-09-12T09:04:42;12.80;;;8.40;;
27161;SDS011;54464;50.558;9.704;2023-09-12T09:09:47;19.20;;;8.80;;
27161;SDS011;54464;50.558;9.704;2023-09-12T09:12:16;16.02;;;8.77;;
27161;SDS011;54464;50.558;9.704;2023-09-12T09:14:42;13.82;;;8.70;;
27161;SDS011;54464;50.558;9.704;2023-09-12T09:17:07;14.07;;;8.27;;
27161;SDS011;54464;50.558;9.704;2023-09-12T09:19:42;11.95;;;8.05;;
27161;SDS011;54464;50.558;9.704;2023-09-12T09:22:09;10.30;;;8.18;;
27161;SDS011;54464;50.558;9.704;2023-09-12T09:24:35;13.60;;;8.23;;
27161;SDS011;54464;50.558;9.704;2023-09-12T09:27:01;13.30;;;8.50;;
27161;SDS011;54464;50.558;9.704;2023-09-12T09:29:27;11.13;;;7.95;;
27161;SDS011;54464;50.558;9.704;2023-09-12T09:31:58;12.95;;;8.43;;
27161;SDS011;54464;50.558;9.704;2023-09-12T09:34:25;11.05;;;8.25;;
27161;SDS011;54464;50.558;9.704;2023-09-12T09:36:55;14.02;;;8.13;;
27161;SDS011;54464;50.558;9.704;2023-09-12T09:39:25;13.27;;;8.43;;
27161;SDS011;54464;50.558;9.704;2023-09-12T09:41:53;14.43;;;7.82;;
27161;SDS011;54464;50.558;9.704;2023-09-12T09:44:20;15.40;;;8.43;;
27161;SDS011;54464;50.558;9.704;2023-09-12T09:46:58;10.32;;;7.50;;
27161;SDS011;54464;50.558;9.704;2023-09-12T09:49:27;11.55;;;6.78;;
27161;SDS011;54464;50.558;9.704;2023-09-12T09:51:52;15.23;;;7.63;;
27161;SDS011;54464;50.558;9.704;2023-09-12T09:54:23;16.50;;;7.57;;
27161;SDS011;54464;50.558;9.704;2023-09-12T09:56:53;13.55;;;7.00;;
27161;SDS011;54464;50.558;9.704;2023-09-12T09:59:26;11.30;;;6.82;;
27161;SDS011;54464;50.558;9.704;2023-09-12T10:01:56;11.13;;;6.57;;
27161;SDS011;54464;50.558;9.704;2023-09-12T10:04:23;10.98;;;6.57;;
27161;SDS011;54464;50.558;9.704;2023-09-12T10:06:51;11.70;;;6.85;;
27161;SDS011;54464;50.558;9.704;2023-09-12T10:09:19;7.25;;;6.07;;
27161;SDS011;54464;50.558;9.704;2023-09-12T10:11:47;9.95;;;6.45;;
27161;SDS011;54464;50.558;9.704;2023-09-12T10:14:15;10.55;;;6.03;;
27161;SDS011;54464;50.558;9.704;2023-09-12T10:16:47;11.18;;;6.22;;
27161;SDS011;54464;50.558;9.704;2023-09-12T10:19:17;12.25;;;6.07;;
27161;SDS011;54464;50.558;9.704;2023-09-12T10:21:54;14.00;;;6.75;;
27161;SDS011;54464;50.558;9.704;2023-09-12T10:24:24;9.20;;;6.07;;
27161;SDS011;54464;50.558;9.704;2023-09-12T10:26:52;8.40;;;5.82;;
27161;SDS011;54464;50.558;9.704;2023-09-12T10:29:18;7.82;;;5.97;;
27161;SDS011;54464;50.558;9.704;2023-09-12T10:31:44;12.27;;;7.07;;
27161;SDS011;54464;50.558;9.704;2023-09-12T10:34:11;10.13;;;6.20;;
27161;SDS011;54464;50.558;9.704;2023-09-12T10:36:39;10.77;;;5.32;;
27161;SDS011;54464;50.558;9.704;2023-09-12T10:39:06;10.88;;;5.30;;
27161;SDS011;54464;50.558;9.704;2023-09-12T10:41:35;8.50;;;5.55;;
27161;SDS011;54464;50.558;9.704;2023-09-12T10:44:03;8.25;;;5.75;;
27161;SDS011;54464;50.558;9.704;2023-09-12T10:46:36;10.93;;;5.85;;
27161;SDS011;54464;50.558;9.704;2023-09-12T10:49:06;14.63;;;6.20;;
27161;SDS011;54464;50.558;9.704;2023-09-12T10:51:34;10.63;;;5.90;;
27161;SDS011;54464;50.558;9.704;2023-09-12T10:54:07;9.30;;;6.10;;
27161;SDS011;54464;50.558;9.704;2023-09-12T10:56:33;8.02;;;5.28;;
27161;SDS011;54464;50.558;9.704;2023-09-12T11:01:37;8.82;;;5.10;;
27161;SDS011;54464;50.558;9.704;2023-09-12T11:06:48;10.73;;;5.30;;
27161;SDS011;54464;50.558;9.704;2023-09-12T11:12:02;5.95;;;4.88;;
27161;SDS011;54464;50.558;9.704;2023-09-12T11:14:28;6.85;;;4.97;;
27161;SDS011;54464;50.558;9.704;2023-09-12T11:22:24;12.63;;;5.32;;
27161;SDS011;54464;50.558;9.704;2023-09-12T11:24:51;9.77;;;4.78;;
27161;SDS011;54464;50.558;9.704;2023-09-12T11:27:16;8.75;;;4.57;;
27161;SDS011;54464;50.558;9.704;2023-09-12T11:29:42;5.82;;;4.72;;
27161;SDS011;54464;50.558;9.704;2023-09-12T11:32:11;8.27;;;4.10;;
27161;SDS011;54464;50.558;9.704;2023-09-12T11:34:55;9.32;;;4.57;;
27161;SDS011;54464;50.558;9.704;2023-09-12T11:37:27;9.18;;;4.78;;
27161;SDS011;54464;50.558;9.704;2023-09-12T11:39:54;5.68;;;4.38;;
27161;SDS011;54464;50.558;9.704;2023-09-12T11:42:22;6.85;;;4.40;;
27161;SDS011;54464;50.558;9.704;2023-09-12T11:44:50;8.48;;;4.40;;
27161;SDS011;54464;50.558;9.704;2023-09-12T11:47:16;7.18;;;4.55;;
27161;SDS011;54464;50.558;9.704;2023-09-12T11:49:42;7.75;;;4.20;;
27161;SDS011;54464;50.558;9.704;2023-09-12T11:52:09;9.32;;;4.65;;
27161;SDS011;54464;50.558;9.704;2023-09-12T11:54:35;7.93;;;4.35;;
27161;SDS011;54464;50.558;9.704;2023-09-12T11:57:04;8.98;;;4.40;;
27161;SDS011;54464;50.558;9.704;2023-09-12T11:59:32;7.78;;;4.63;;
27161;SDS011;54464;50.558;9.704;2023-09-12T12:02:02;7.78;;;4.22;;
27161;SDS011;54464;50.558;9.704;2023-09-12T12:04:32;6.50;;;4.32;;
27161;SDS011;54464;50.558;9.704;2023-09-12T12:06:57;7.00;;;4.63;;
27161;SDS011;54464;50.558;9.704;2023-09-12T12:09:23;8.05;;;4.80;;
27161;SDS011;54464;50.558;9.704;2023-09-12T12:11:49;8.27;;;4.40;;
27161;SDS011;54464;50.558;9.704;2023-09-12T12:14:15;6.78;;;4.60;;
27161;SDS011;54464;50.558;9.704;2023-09-12T12:16:42;8.48;;;4.55;;
27161;SDS011;54464;50.558;9.704;2023-09-12T12:19:11;10.82;;;4.20;;
27161;SDS011;54464;50.558;9.704;2023-09-12T12:21:41;6.57;;;4.22;;
27161;SDS011;54464;50.558;9.704;2023-09-12T12:24:08;6.63;;;4.50;;
27161;SDS011;54464;50.558;9.704;2023-09-12T12:26:40;7.28;;;4.55;;
27161;SDS011;54464;50.558;9.704;2023-09-12T12:29:08;8.07;;;4.22;;
27161;SDS011;54464;50.558;9.704;2023-09-12T12:31:35;7.35;;;4.38;;
27161;SDS011;54464;50.558;9.704;2023-09-12T12:34:01;8.73;;;4.30;;
27161;SDS011;54464;50.558;9.704;2023-09-12T12:36:26;8.50;;;4.30;;
27161;SDS011;54464;50.558;9.704;2023-09-12T12:38:52;7.75;;;4.25;;
27161;SDS011;54464;50.558;9.704;2023-09-12T12:41:22;8.07;;;3.92;;
27161;SDS011;54464;50.558;9.704;2023-09-12T12:43:50;10.55;;;4.30;;
27161;SDS011;54464;50.558;9.704;2023-09-12T12:46:16;7.22;;;3.95;;
27161;SDS011;54464;50.558;9.704;2023-09-12T12:48:44;5.38;;;3.78;;
27161;SDS011;54464;50.558;9.704;2023-09-12T12:51:20;7.78;;;4.50;;
27161;SDS011;54464;50.558;9.704;2023-09-12T12:53:51;8.13;;;3.95;;
27161;SDS011;54464;50.558;9.704;2023-09-12T12:56:19;7.85;;;4.13;;
27161;SDS011;54464;50.558;9.704;2023-09-12T12:58:52;6.28;;;4.28;;
27161;SDS011;54464;50.558;9.704;2023-09-12T13:01:20;7.78;;;4.03;;
27161;SDS011;54464;50.558;9.704;2023-09-12T13:03:46;7.10;;;4.15;;
27161;SDS011;54464;50.558;9.704;2023-09-12T13:06:12;7.95;;;3.80;;
27161;SDS011;54464;50.558;9.704;2023-09-12T13:08:42;6.15;;;4.63;;
27161;SDS011;54464;50.558;9.704;2023-09-12T13:11:11;5.70;;;3.85;;
27161;SDS011;54464;50.558;9.704;2023-09-12T13:13:38;7.75;;;4.38;;
27161;SDS011;54464;50.558;9.704;2023-09-12T13:16:05;5.65;;;4.30;;
27161;SDS011;54464;50.558;9.704;2023-09-12T13:18:31;5.68;;;3.92;;
27161;SDS011;54464;50.558;9.704;2023-09-12T13:20:58;4.50;;;4.07;;
27161;SDS011;54464;50.558;9.704;2023-09-12T13:23:23;10.88;;;4.60;;
27161;SDS011;54464;50.558;9.704;2023-09-12T13:25:49;7.10;;;4.50;;
27161;SDS011;54464;50.558;9.704;2023-09-12T13:28:15;5.55;;;3.80;;
27161;SDS011;54464;50.558;9.704;2023-09-12T13:30:41;5.22;;;3.78;;
27161;SDS011;54464;50.558;9.704;2023-09-12T13:33:07;9.70;;;3.95;;
27161;SDS011;54464;50.558;9.704;2023-09-12T13:35:32;5.38;;;4.10;;
27161;SDS011;54464;50.558;9.704;2023-09-12T13:37:58;6.43;;;4.40;;
27161;SDS011;54464;50.558;9.704;2023-09-12T13:40:24;8.50;;;4.75;;
27161;SDS011;54464;50.558;9.704;2023-09-12T13:42:49;6.93;;;4.32;;
27161;SDS011;54464;50.558;9.704;2023-09-12T13:45:15;9.25;;;4.60;;
27161;SDS011;54464;50.558;9.704;2023-09-12T13:47:40;9.68;;;5.10;;
27161;SDS011;54464;50.558;9.704;2023-09-12T13:50:07;8.68;;;4.15;;
27161;SDS011;54464;50.558;9.704;2023-09-12T13:52:33;8.43;;;4.80;;
27161;SDS011;54464;50.558;9.704;2023-09-12T13:54:59;7.93;;;4.40;;
27161;SDS011;54464;50.558;9.704;2023-09-12T13:57:28;7.00;;;4.25;;
27161;SDS011;54464;50.558;9.704;2023-09-12T13:59:53;5.65;;;4.03;;
27161;SDS011;54464;50.558;9.704;2023-09-12T14:02:19;4.63;;;3.85;;
27161;SDS011;54464;50.558;9.704;2023-09-12T14:04:45;6.68;;;4.50;;
27161;SDS011;54464;50.558;9.704;2023-09-12T14:07:10;7.40;;;4.15;;
27161;SDS011;54464;50.558;9.704;2023-09-12T14:09:36;6.50;;;4.25;;
27161;SDS011;54464;50.558;9.704;2023-09-12T14:12:02;7.88;;;4.15;;
27161;SDS011;54464;50.558;9.704;2023-09-12T14:14:28;9.73;;;4.57;;
27161;SDS011;54464;50.558;9.704;2023-09-12T14:16:53;7.03;;;4.30;;
27161;SDS011;54464;50.558;9.704;2023-09-12T14:19:19;6.07;;;4.13;;
27161;SDS011;54464;50.558;9.704;2023-09-12T14:21:44;11.07;;;4.38;;
27161;SDS011;54464;50.558;9.704;2023-09-12T14:24:10;6.20;;;4.10;;
27161;SDS011;54464;50.558;9.704;2023-09-12T14:26:35;8.80;;;4.55;;
27161;SDS011;54464;50.558;9.704;2023-09-12T14:29:01;7.35;;;4.30;;
27161;SDS011;54464;50.558;9.704;2023-09-12T14:31:27;8.02;;;4.03;;
27161;SDS011;54464;50.558;9.704;2023-09-12T14:33:52;10.52;;;4.50;;
27161;SDS011;54464;50.558;9.704;2023-09-12T14:36:18;7.20;;;4.60;;
27161;SDS011;54464;50.558;9.704;2023-09-12T14:38:44;8.07;;;4.10;;
27161;SDS011;54464;50.558;9.704;2023-09-12T14:41:11;12.43;;;4.97;;
27161;SDS011;54464;50.558;9.704;2023-09-12T14:43:37;10.65;;;4.43;;
27161;SDS011;54464;50.558;9.704;2023-09-12T14:46:03;8.05;;;4.20;;
27161;SDS011;54464;50.558;9.704;2023-09-12T14:48:30;12.35;;;4.10;;
27161;SDS011;54464;50.558;9.704;2023-09-12T14:50:58;7.75;;;4.55;;
27161;SDS011;54464;50.558;9.704;2023-09-12T14:53:26;7.80;;;4.25;;
27161;SDS011;54464;50.558;9.704;2023-09-12T14:55:52;8.85;;;4.60;;